createdAt,value
2022-11-04T00:01:33.818Z,30.27
2022-11-04T00:04:01.418Z,34.15
2022-11-04T00:06:28.743Z,31.10
2022-11-04T00:08:57.555Z,31.00
2022-11-04T00:11:44.994Z,28.08
2022-11-04T00:14:13.185Z,35.90
2022-11-04T00:16:59.968Z,33.10
2022-11-04T00:19:27.947Z,29.08
2022-11-04T00:22:14.620Z,28.70
2022-11-04T00:25:00.544Z,31.80
2022-11-04T00:27:46.875Z,28.75
2022-11-04T00:30:14.182Z,35.50
2022-11-04T00:33:00.199Z,30.55
2022-11-04T00:35:27.521Z,29.48
2022-11-04T00:37:55.102Z,30.92
2022-11-04T00:40:22.668Z,33.35
2022-11-04T00:42:49.990Z,28.33
2022-11-04T00:45:17.566Z,34.95
2022-11-04T00:47:44.880Z,37.25
2022-11-04T00:50:12.231Z,30.17
2022-11-04T00:52:39.783Z,29.92
2022-11-04T00:55:07.466Z,31.85
2022-11-04T00:57:34.757Z,27.80
2022-11-04T01:00:02.383Z,29.67
2022-11-04T01:02:29.921Z,29.45
2022-11-04T01:04:57.282Z,31.80
2022-11-04T01:07:24.865Z,32.22
2022-11-04T01:09:52.179Z,28.55
2022-11-04T01:12:19.708Z,30.75
2022-11-04T01:14:49.739Z,31.73
2022-11-04T01:17:17.207Z,30.70
2022-11-04T01:19:44.546Z,31.58
2022-11-04T01:22:12.112Z,31.55
2022-11-04T01:24:39.442Z,28.48
2022-11-04T01:27:06.783Z,33.90
2022-11-04T01:29:34.421Z,27.67
2022-11-04T01:32:01.739Z,28.77
2022-11-04T01:34:29.142Z,32.17
2022-11-04T01:36:56.856Z,29.50
2022-11-04T01:39:24.183Z,35.40
2022-11-04T01:41:51.533Z,33.42
2022-11-04T01:44:50.026Z,33.63
2022-11-04T01:47:42.305Z,31.23
2022-11-04T01:50:14.244Z,35.85
2022-11-04T01:52:51.241Z,32.40
2022-11-04T01:55:31.786Z,32.00
2022-11-04T01:58:04.474Z,28.30
2022-11-04T02:00:32.996Z,29.70
2022-11-04T02:03:10.401Z,28.50
2022-11-04T02:05:38.789Z,30.27
2022-11-04T02:08:07.048Z,28.30
2022-11-04T02:10:34.342Z,30.98
2022-11-04T02:13:03.440Z,30.02
2022-11-04T02:15:40.071Z,31.62
2022-11-04T02:18:14.841Z,32.83
2022-11-04T02:21:09.660Z,33.13
2022-11-04T02:24:15.015Z,29.80
2022-11-04T02:27:20.299Z,35.65
2022-11-04T02:30:20.086Z,34.30
2022-11-04T02:33:00.081Z,33.63
2022-11-04T02:35:56.271Z,35.15
2022-11-04T02:38:49.136Z,34.30
2022-11-04T02:41:16.387Z,38.30
2022-11-04T02:43:53.224Z,36.17
2022-11-04T02:46:36.914Z,34.13
2022-11-04T02:49:25.334Z,37.38
2022-11-04T02:52:00.699Z,36.30
2022-11-04T02:54:36.493Z,34.90
2022-11-04T02:57:07.522Z,35.53
2022-11-04T02:59:38.384Z,37.90
2022-11-04T03:02:09.156Z,36.78
2022-11-04T03:04:46.859Z,34.00
2022-11-04T03:07:16.184Z,36.85
2022-11-04T03:09:48.046Z,39.40
2022-11-04T03:12:17.737Z,38.35
2022-11-04T03:14:49.598Z,33.03
2022-11-04T03:17:24.007Z,35.22
2022-11-04T03:19:57.373Z,34.78
2022-11-04T03:22:35.744Z,37.75
2022-11-04T03:25:04.780Z,37.20
2022-11-04T03:27:45.000Z,34.22
2022-11-04T03:33:04.714Z,37.60
2022-11-04T03:35:32.590Z,37.72
2022-11-04T03:38:00.288Z,40.65
2022-11-04T03:40:27.617Z,36.03
2022-11-04T03:43:17.885Z,33.20
2022-11-04T03:45:45.294Z,38.83
2022-11-04T03:48:13.236Z,33.67
2022-11-04T03:50:47.615Z,35.78
2022-11-04T03:53:22.233Z,32.67
2022-11-04T03:55:55.421Z,36.05
2022-11-04T03:58:55.166Z,35.33
2022-11-04T04:01:35.277Z,36.33
2022-11-04T04:04:10.188Z,39.78
2022-11-04T04:06:37.997Z,36.97
2022-11-04T04:09:16.583Z,39.38
2022-11-04T04:11:55.112Z,37.33
2022-11-04T04:14:39.198Z,36.78
2022-11-04T04:17:20.243Z,37.72
2022-11-04T04:20:11.020Z,41.55
2022-11-04T04:23:01.994Z,40.55
2022-11-04T04:25:49.226Z,38.95
2022-11-04T04:28:17.840Z,42.72
2022-11-04T04:30:46.387Z,39.97
2022-11-04T04:33:15.818Z,39.08
2022-11-04T04:35:53.853Z,44.55
2022-11-04T04:38:43.952Z,37.75
2022-11-04T04:41:36.535Z,49.78
2022-11-04T04:44:23.775Z,41.65
2022-11-04T04:46:52.282Z,43.85
2022-11-04T04:49:19.882Z,48.25
2022-11-04T04:51:47.903Z,47.25
2022-11-04T04:54:15.509Z,48.47
2022-11-04T04:56:43.128Z,52.10
2022-11-04T04:59:10.437Z,48.08
2022-11-04T05:01:38.033Z,50.40
2022-11-04T05:04:05.682Z,50.85
2022-11-04T05:06:32.996Z,46.65
2022-11-04T05:09:00.345Z,49.65
2022-11-04T05:11:27.929Z,54.65
2022-11-04T05:13:55.221Z,54.97
2022-11-04T05:16:22.579Z,62.25
2022-11-04T05:18:51.892Z,50.47
2022-11-04T05:21:19.244Z,57.97
2022-11-04T05:23:46.555Z,57.35
2022-11-04T05:26:14.991Z,51.55
2022-11-04T05:28:42.283Z,50.03
2022-11-04T05:31:09.614Z,48.87
2022-11-04T05:33:37.213Z,49.45
2022-11-04T05:36:13.203Z,48.17
2022-11-04T05:38:41.085Z,50.63
2022-11-04T05:41:10.424Z,49.08
2022-11-04T05:43:38.606Z,48.47
2022-11-04T05:46:06.165Z,46.60
2022-11-04T05:48:39.260Z,48.42
2022-11-04T05:51:07.853Z,54.40
2022-11-04T05:53:35.379Z,50.70
2022-11-04T05:56:02.690Z,52.22
2022-11-04T05:58:30.275Z,49.88
2022-11-04T06:01:43.914Z,52.92
2022-11-04T06:04:16.722Z,49.42
2022-11-04T06:06:44.151Z,50.85
2022-11-04T06:09:11.906Z,50.40
2022-11-04T06:11:39.697Z,46.65
2022-11-04T06:14:07.000Z,51.95
2022-11-04T06:16:34.584Z,55.33
2022-11-04T06:19:06.094Z,55.25
2022-11-04T06:21:37.342Z,49.67
2022-11-04T06:24:04.769Z,52.08
2022-11-04T06:26:32.126Z,47.67
2022-11-04T06:28:59.686Z,53.38
2022-11-04T06:31:27.274Z,54.63
2022-11-04T06:33:54.634Z,55.03
2022-11-04T06:36:22.331Z,54.22
2022-11-04T06:38:49.655Z,59.60
2022-11-04T06:41:17.394Z,53.22
2022-11-04T06:43:45.157Z,53.05
2022-11-04T06:46:40.703Z,49.83
2022-11-04T06:49:20.049Z,52.75
2022-11-04T06:51:47.968Z,56.03
2022-11-04T06:54:16.839Z,54.63
2022-11-04T06:56:44.731Z,51.95
2022-11-04T06:59:15.916Z,51.33
2022-11-04T07:01:43.779Z,55.88
2022-11-04T07:04:11.183Z,56.40
2022-11-04T07:06:43.951Z,50.83
2022-11-04T07:09:13.990Z,55.15
2022-11-04T07:11:42.924Z,58.40
2022-11-04T07:14:11.013Z,61.28
2022-11-04T07:16:38.730Z,57.90
2022-11-04T07:19:06.588Z,57.03
2022-11-04T07:21:33.939Z,58.95
2022-11-04T07:24:02.127Z,50.65
2022-11-04T07:26:29.455Z,53.85
2022-11-04T07:28:58.028Z,56.80
2022-11-04T07:31:25.656Z,51.67
2022-11-04T07:33:53.639Z,47.60
2022-11-04T07:36:20.981Z,47.65
2022-11-04T07:38:48.615Z,48.05
2022-11-04T07:41:16.577Z,51.72
2022-11-04T07:43:48.716Z,50.00
2022-11-04T07:46:16.743Z,47.72
2022-11-04T07:48:44.081Z,49.28
2022-11-04T07:51:14.771Z,55.85
2022-11-04T07:53:42.798Z,50.67
2022-11-04T07:56:11.746Z,57.95
2022-11-04T07:58:39.804Z,50.67
2022-11-04T08:01:12.253Z,50.78
2022-11-04T08:06:08.749Z,59.33
2022-11-04T08:08:36.175Z,69.25
2022-11-04T08:11:07.015Z,45.78
2022-11-04T08:13:36.274Z,53.60
2022-11-04T08:16:13.113Z,53.08
2022-11-04T08:18:41.566Z,40.40
2022-11-04T08:21:09.718Z,48.45
2022-11-04T08:23:37.391Z,57.58
2022-11-04T08:26:09.815Z,49.45
2022-11-04T08:28:37.804Z,48.28
2022-11-04T08:31:07.629Z,53.58
2022-11-04T08:33:36.504Z,57.13
2022-11-04T08:36:10.009Z,54.45
2022-11-04T08:38:37.526Z,50.40
2022-11-04T08:41:06.995Z,46.30
2022-11-04T08:43:34.924Z,57.40
2022-11-04T08:46:05.705Z,51.05
2022-11-04T08:48:35.172Z,50.12
2022-11-04T08:51:04.611Z,58.97
2022-11-04T08:53:31.929Z,50.08
2022-11-04T08:55:59.511Z,51.78
2022-11-04T08:58:26.822Z,53.17
2022-11-04T09:00:54.141Z,53.63
2022-11-04T09:03:21.746Z,54.90
2022-11-04T09:08:17.634Z,55.58
2022-11-04T09:10:46.847Z,54.15
2022-11-04T09:13:15.887Z,53.85
2022-11-04T09:15:43.303Z,50.97
2022-11-04T09:18:10.901Z,52.25
2022-11-04T09:20:38.622Z,44.95
2022-11-04T09:23:06.831Z,52.40
2022-11-04T09:25:35.501Z,44.85
2022-11-04T09:28:03.154Z,42.97
2022-11-04T09:30:30.686Z,45.75
2022-11-04T09:32:58.689Z,46.72
2022-11-04T09:35:27.628Z,45.10
2022-11-04T09:37:55.170Z,48.60
2022-11-04T09:40:24.838Z,46.70
2022-11-04T09:43:01.582Z,49.47
2022-11-04T09:45:31.124Z,47.30
2022-11-04T09:48:01.486Z,47.08
2022-11-04T09:51:01.052Z,49.80
2022-11-04T09:53:41.853Z,49.92
2022-11-04T09:56:16.270Z,48.45
2022-11-04T09:58:43.578Z,51.80
2022-11-04T10:01:28.922Z,51.50
2022-11-04T10:04:45.945Z,49.40
2022-11-04T10:07:16.222Z,46.78
2022-11-04T10:10:34.982Z,48.10
2022-11-04T10:13:23.198Z,49.22
2022-11-04T10:15:58.647Z,48.33
2022-11-04T10:18:50.270Z,53.92
2022-11-04T10:21:37.405Z,49.70
2022-11-04T10:24:20.767Z,51.03
2022-11-04T10:27:00.764Z,47.75
2022-11-04T10:29:34.049Z,56.95
2022-11-04T10:32:03.675Z,54.13
2022-11-04T10:34:33.270Z,52.05
2022-11-04T10:37:00.601Z,50.20
2022-11-04T10:39:31.499Z,51.80
2022-11-04T10:41:59.269Z,51.03
2022-11-04T10:44:29.510Z,52.50
2022-11-04T10:47:18.885Z,48.63
2022-11-04T10:50:27.196Z,52.60
2022-11-04T10:52:48.650Z,51.40
2022-11-04T10:55:38.401Z,54.17
2022-11-04T10:58:16.265Z,51.37
2022-11-04T11:00:44.046Z,55.95
2022-11-04T11:03:34.302Z,54.60
2022-11-04T11:06:37.483Z,60.38
2022-11-04T11:09:28.519Z,55.85
2022-11-04T11:12:00.803Z,50.90
2022-11-04T11:14:28.295Z,49.08
2022-11-04T11:16:57.235Z,52.30
2022-11-04T11:19:25.676Z,51.63
2022-11-04T11:21:55.987Z,49.95
2022-11-04T11:24:28.183Z,54.42
2022-11-04T11:26:57.704Z,48.80
2022-11-04T11:29:26.442Z,52.60
2022-11-04T11:31:55.603Z,48.80
2022-11-04T11:34:32.579Z,49.70
2022-11-04T11:37:05.215Z,53.67
2022-11-04T11:39:33.642Z,50.60
2022-11-04T11:42:00.940Z,50.67
2022-11-04T11:44:33.809Z,52.13
2022-11-04T11:47:06.728Z,51.60
2022-11-04T11:49:36.629Z,52.75
2022-11-04T11:52:38.341Z,53.15
2022-11-04T11:55:25.178Z,49.65
2022-11-04T12:01:11.883Z,50.97
2022-11-04T12:09:59.769Z,57.33
2022-11-04T12:13:06.797Z,54.47
2022-11-04T12:15:37.822Z,55.25
2022-11-04T12:18:18.637Z,57.60
2022-11-04T12:20:53.778Z,54.55
2022-11-04T12:23:43.442Z,54.75
2022-11-04T12:26:20.944Z,54.47
2022-11-04T12:29:29.799Z,54.35
2022-11-04T12:32:27.671Z,59.33
2022-11-04T12:35:04.388Z,55.97
2022-11-04T12:37:52.907Z,63.63
2022-11-04T12:40:29.850Z,62.72
2022-11-04T12:43:35.802Z,57.22
2022-11-04T12:46:12.461Z,64.55
2022-11-04T12:48:57.421Z,61.15
2022-11-04T12:51:48.134Z,56.65
2022-11-04T12:54:34.068Z,56.00
2022-11-04T12:57:19.621Z,60.70
2022-11-04T13:00:11.167Z,65.53
2022-11-04T13:02:42.929Z,55.47
2022-11-04T13:05:38.431Z,59.20
2022-11-04T13:08:24.580Z,62.30
2022-11-04T13:11:24.149Z,65.18
2022-11-04T13:14:01.880Z,58.50
2022-11-04T13:16:32.546Z,62.72
2022-11-04T13:19:00.378Z,60.38
2022-11-04T13:21:30.423Z,62.42
2022-11-04T13:24:17.875Z,58.00
2022-11-04T13:26:45.478Z,59.90
2022-11-04T13:29:15.652Z,57.50
2022-11-04T13:31:58.217Z,58.17
2022-11-04T13:34:33.000Z,62.88
2022-11-04T13:37:25.185Z,61.75
2022-11-04T13:39:57.850Z,62.65
2022-11-04T13:45:16.398Z,60.40
2022-11-04T13:47:50.540Z,59.40
2022-11-04T13:50:27.804Z,57.05
2022-11-04T13:52:55.152Z,59.88
2022-11-04T13:55:22.871Z,59.63
2022-11-04T13:58:01.589Z,58.97
2022-11-04T14:00:30.752Z,62.33
2022-11-04T14:03:26.874Z,54.60
2022-11-04T14:06:03.883Z,61.83
2022-11-04T14:08:32.359Z,58.25
2022-11-04T14:11:01.571Z,58.70
2022-11-04T14:13:32.596Z,62.62
2022-11-04T14:16:07.287Z,53.08
2022-11-04T14:18:42.298Z,55.53
2022-11-04T14:21:11.460Z,59.03
2022-11-04T14:23:53.046Z,59.17
2022-11-04T14:26:26.995Z,56.08
2022-11-04T14:29:03.009Z,54.45
2022-11-04T14:31:35.884Z,55.63
2022-11-04T14:34:04.291Z,63.47
2022-11-04T14:36:41.619Z,53.92
2022-11-04T14:39:11.633Z,56.85
2022-11-04T14:41:57.450Z,59.33
2022-11-04T14:44:37.665Z,54.35
2022-11-04T14:47:20.427Z,57.65
2022-11-04T14:52:30.885Z,60.50
2022-11-04T14:55:05.315Z,60.10
2022-11-04T14:57:44.928Z,49.80
2022-11-04T15:00:36.075Z,53.50
2022-11-04T15:03:32.068Z,47.53
2022-11-04T15:06:05.494Z,58.90
2022-11-04T15:08:38.212Z,53.00
2022-11-04T15:11:16.908Z,52.78
2022-11-04T15:13:50.327Z,46.63
2022-11-04T15:16:24.353Z,47.40
2022-11-04T15:18:53.161Z,48.85
2022-11-04T15:21:20.532Z,52.25
2022-11-04T15:23:50.121Z,51.47
2022-11-04T15:26:30.163Z,50.92
2022-11-04T15:29:03.517Z,45.55
2022-11-04T15:31:32.266Z,48.53
2022-11-04T15:34:03.165Z,48.40
2022-11-04T15:36:38.662Z,49.88
2022-11-04T15:39:11.527Z,48.70
2022-11-04T15:42:00.025Z,48.40
2022-11-04T15:44:29.985Z,41.83
2022-11-04T15:46:59.979Z,44.10
2022-11-04T15:49:28.980Z,45.65
2022-11-04T15:52:01.358Z,43.08
2022-11-04T15:54:31.043Z,41.05
2022-11-04T15:57:01.068Z,49.55
2022-11-04T15:59:31.759Z,48.63
2022-11-04T16:01:59.798Z,46.80
2022-11-04T16:04:28.462Z,48.38
2022-11-04T16:07:23.067Z,46.55
2022-11-04T16:09:54.575Z,47.55
2022-11-04T16:12:28.034Z,48.43
2022-11-04T16:14:57.074Z,48.63
2022-11-04T16:17:25.590Z,47.97
2022-11-04T16:19:56.131Z,46.50
2022-11-04T16:22:28.535Z,46.42
2022-11-04T16:24:56.647Z,43.20
2022-11-04T16:27:25.125Z,42.58
2022-11-04T16:30:01.760Z,42.28
2022-11-04T16:32:43.564Z,44.42
2022-11-04T16:35:25.292Z,47.65
2022-11-04T16:37:54.097Z,43.47
2022-11-04T16:40:22.752Z,44.83
2022-11-04T16:42:50.606Z,41.88
2022-11-04T16:45:25.158Z,43.05
2022-11-04T16:47:53.490Z,43.28
2022-11-04T16:50:21.546Z,45.10
2022-11-04T16:52:49.106Z,44.85
2022-11-04T16:55:16.446Z,41.05
2022-11-04T16:57:47.840Z,43.13
2022-11-04T17:00:23.699Z,42.47
2022-11-04T17:02:52.533Z,40.90
2022-11-04T17:05:20.511Z,37.00
2022-11-04T17:07:53.632Z,38.63
2022-11-04T17:10:28.285Z,42.80
2022-11-04T17:12:55.698Z,39.80
2022-11-04T17:15:23.287Z,43.45
2022-11-04T17:17:50.626Z,41.05
2022-11-04T17:20:18.315Z,38.45
2022-11-04T17:22:47.255Z,38.03
2022-11-04T17:25:20.453Z,37.42
2022-11-04T17:27:48.592Z,43.35
2022-11-04T17:30:16.994Z,39.58
2022-11-04T17:32:45.171Z,37.67
2022-11-04T17:35:13.446Z,41.75
2022-11-04T17:37:41.197Z,36.95
2022-11-04T17:40:12.053Z,40.40
2022-11-04T17:42:58.147Z,37.78
2022-11-04T17:45:25.546Z,38.75
2022-11-04T17:47:53.110Z,37.97
2022-11-04T17:50:20.464Z,39.42
2022-11-04T17:52:49.314Z,38.00
2022-11-04T17:55:19.764Z,37.90
2022-11-04T17:57:50.985Z,36.80
2022-11-04T18:00:19.518Z,42.65
2022-11-04T18:02:47.227Z,39.58
2022-11-04T18:05:14.610Z,38.60
2022-11-04T18:07:42.216Z,42.72
2022-11-04T18:10:09.946Z,35.78
2022-11-04T18:12:37.273Z,38.33
2022-11-04T18:15:05.882Z,43.80
2022-11-04T18:17:37.186Z,40.10
2022-11-04T18:20:08.247Z,39.55
2022-11-04T18:22:40.032Z,40.88
2022-11-04T18:25:08.045Z,42.03
2022-11-04T18:27:35.545Z,36.30
2022-11-04T18:30:03.502Z,39.17
2022-11-04T18:32:31.078Z,35.92
2022-11-04T18:34:58.378Z,40.15
2022-11-04T18:37:26.212Z,35.58
2022-11-04T18:39:53.541Z,36.35
2022-11-04T18:42:20.860Z,38.78
2022-11-04T18:44:48.607Z,40.40
2022-11-04T18:47:16.251Z,38.97
2022-11-04T18:49:43.595Z,35.42
2022-11-04T18:52:11.374Z,48.47
2022-11-04T18:54:38.763Z,42.42
2022-11-04T18:57:06.073Z,41.10
2022-11-04T18:59:33.719Z,41.75
2022-11-04T19:02:01.330Z,40.33
2022-11-04T19:04:28.867Z,44.58
2022-11-04T19:06:56.548Z,44.10
2022-11-04T19:12:30.032Z,57.30
2022-11-04T19:14:57.340Z,54.17
2022-11-04T19:17:25.225Z,55.45
2022-11-04T19:19:52.541Z,55.55
2022-11-04T19:22:19.838Z,53.13
2022-11-04T19:24:47.512Z,52.75
2022-11-04T19:27:15.161Z,50.50
2022-11-04T19:29:42.482Z,46.63
2022-11-04T19:32:14.321Z,46.35
2022-11-04T19:34:42.748Z,52.67
2022-11-04T19:37:10.784Z,54.55
2022-11-04T19:39:39.014Z,56.05
2022-11-04T19:42:24.854Z,53.20
2022-11-04T19:44:52.436Z,50.05
2022-11-04T19:47:19.766Z,57.92
2022-11-04T19:49:47.284Z,56.47
2022-11-04T19:52:14.918Z,55.10
2022-11-04T19:54:42.268Z,55.12
2022-11-04T19:57:09.611Z,52.78
2022-11-04T19:59:37.369Z,52.90
2022-11-04T20:02:04.779Z,44.90
2022-11-04T20:04:32.555Z,46.00
2022-11-04T20:06:59.846Z,42.72
2022-11-04T20:09:27.172Z,44.60
2022-11-04T20:12:13.200Z,40.50
2022-11-04T20:14:40.507Z,41.17
2022-11-04T20:17:08.231Z,36.15
2022-11-04T20:19:35.532Z,38.60
2022-11-04T20:22:03.689Z,44.72
2022-11-04T20:24:31.327Z,38.97
2022-11-04T20:26:58.644Z,41.35
2022-11-04T20:29:26.001Z,37.10
2022-11-04T20:31:53.587Z,39.25
2022-11-04T20:34:20.911Z,37.28
2022-11-04T20:36:48.449Z,37.05
2022-11-04T20:39:18.242Z,36.83
2022-11-04T20:41:45.733Z,35.25
2022-11-04T20:44:14.488Z,37.78
2022-11-04T20:46:42.807Z,44.38
2022-11-04T20:49:11.141Z,37.38
2022-11-04T20:51:48.591Z,40.17
2022-11-04T20:54:17.969Z,42.92
2022-11-04T20:56:45.569Z,40.90
2022-11-04T20:59:13.812Z,42.10
2022-11-04T21:01:43.561Z,41.83
2022-11-04T21:04:14.901Z,43.40
2022-11-04T21:06:42.528Z,43.43
2022-11-04T21:09:12.212Z,44.72
2022-11-04T21:11:40.032Z,44.53
2022-11-04T21:14:08.805Z,43.17
2022-11-04T21:16:36.340Z,49.30
2022-11-04T21:19:04.712Z,48.45
2022-11-04T21:21:33.291Z,48.72
2022-11-04T21:24:02.799Z,48.35
2022-11-04T21:26:32.154Z,52.70
2022-11-04T21:29:02.188Z,51.75
2022-11-04T21:31:31.352Z,52.35
2022-11-04T21:33:59.266Z,46.65
2022-11-04T21:36:26.845Z,49.38
2022-11-04T21:38:54.454Z,47.85
2022-11-04T21:41:25.235Z,57.08
2022-11-04T21:43:56.999Z,51.28
2022-11-04T21:46:25.382Z,53.87
2022-11-04T21:48:53.077Z,61.40
2022-11-04T21:51:25.616Z,68.62
2022-11-04T21:53:53.282Z,70.90
2022-11-04T21:56:32.962Z,69.37
2022-11-04T21:59:00.928Z,71.72
2022-11-04T22:01:29.502Z,72.10
2022-11-04T22:03:59.494Z,67.95
2022-11-04T22:06:33.539Z,67.03
2022-11-04T22:09:03.486Z,48.85
2022-11-04T22:11:32.236Z,45.53
2022-11-04T22:14:01.504Z,42.67
2022-11-04T22:16:30.998Z,34.55
2022-11-04T22:18:59.980Z,31.35
2022-11-04T22:21:28.526Z,30.73
2022-11-04T22:23:56.615Z,27.50
2022-11-04T22:26:26.540Z,30.15
2022-11-04T22:28:54.428Z,21.77
2022-11-04T22:31:27.174Z,20.75
2022-11-04T22:33:55.056Z,20.30
2022-11-04T22:36:23.398Z,17.62
2022-11-04T22:38:50.759Z,16.77
2022-11-04T22:41:21.400Z,16.20
2022-11-04T22:43:48.981Z,16.00
2022-11-04T22:46:27.585Z,19.12
2022-11-04T22:48:55.335Z,18.50
2022-11-04T22:51:23.091Z,14.80
2022-11-04T22:53:57.868Z,14.95
2022-11-04T22:56:27.795Z,11.10
2022-11-04T22:58:55.247Z,10.75
2022-11-04T23:01:22.750Z,11.57
2022-11-04T23:03:51.853Z,9.65
2022-11-04T23:06:19.490Z,11.57
2022-11-04T23:08:46.942Z,10.05
2022-11-04T23:11:37.130Z,9.27
2022-11-04T23:14:23.602Z,10.70
2022-11-04T23:17:10.711Z,9.27
2022-11-04T23:19:38.695Z,8.90
2022-11-04T23:22:25.202Z,7.22
2022-11-04T23:25:05.728Z,7.00
2022-11-04T23:27:58.720Z,7.40
2022-11-04T23:32:56.864Z,5.93
2022-11-04T23:35:46.295Z,7.15
2022-11-04T23:38:14.251Z,8.10
2022-11-04T23:40:41.897Z,6.78
2022-11-04T23:43:09.620Z,6.32
2022-11-04T23:45:55.821Z,5.62
2022-11-04T23:48:41.964Z,7.65
2022-11-04T23:51:28.463Z,7.03
2022-11-04T23:54:14.370Z,7.87
2022-11-04T23:57:00.454Z,5.15
2022-11-04T23:59:46.375Z,5.07
